Time;durP1;ratioP1;P1;durP2;ratioP2;P2;SDS_P1;SDS_P2;PMS_P1;PMS_P2;Temp;Humidity;BMP_temperature;BMP_pressure;BME280_temperature;BME280_humidity;BME280_pressure;Samples;Min_cycle;Max_cycle;Signal;HPM_P1;HPM_P2
2023/10/09 00:03:03;;;;;;;9.48;4.20;;;;;;;;;;5075403;28;20024;-66
2023/10/09 00:05:45;;;;;;;7.15;3.85;;;;;;;;;;5075286;28;20485;-66
2023/10/09 00:08:22;;;;;;;7.82;3.85;;;;;;;;;;5074999;28;20427;-66
2023/10/09 00:10:55;;;;;;;8.20;4.00;;;;;;;;;;5074749;28;20021;-66
2023/10/09 00:13:30;;;;;;;13.68;5.20;;;;;;;;;;5075122;28;20021;-66
2023/10/09 00:16:01;;;;;;;7.93;4.03;;;;;;;;;;5074863;28;20042;-66
2023/10/09 00:18:33;;;;;;;10.70;4.97;;;;;;;;;;5074850;28;20032;-66
2023/10/09 00:21:12;;;;;;;16.25;4.18;;;;;;;;;;5074940;28;20040;-66
2023/10/09 00:23:41;;;;;;;9.45;4.88;;;;;;;;;;5074466;28;20025;-66
2023/10/09 00:26:16;;;;;;;14.35;4.60;;;;;;;;;;5074781;28;20027;-66
2023/10/09 00:28:47;;;;;;;9.10;4.18;;;;;;;;;;5074944;28;20025;-66
2023/10/09 00:31:25;;;;;;;9.13;3.97;;;;;;;;;;5056878;28;20438;-66
2023/10/09 00:33:55;;;;;;;11.52;4.25;;;;;;;;;;5057255;28;20028;-66
2023/10/09 00:36:27;;;;;;;9.05;4.28;;;;;;;;;;5074778;28;20402;-66
2023/10/09 00:38:53;;;;;;;11.20;4.80;;;;;;;;;;5074254;28;20380;-66
2023/10/09 00:41:24;;;;;;;8.43;3.75;;;;;;;;;;5074486;28;20478;-66
2023/10/09 00:43:52;;;;;;;8.60;3.85;;;;;;;;;;5074745;28;20020;-66
2023/10/09 00:48:47;;;;;;;8.90;3.67;;;;;;;;;;5074463;28;20477;-66
2023/10/09 00:51:18;;;;;;;9.52;3.72;;;;;;;;;;5074684;28;20489;-66
2023/10/09 00:54:14;;;;;;;9.10;3.63;;;;;;;;;;5074192;28;20082;-66
2023/10/09 00:56:44;;;;;;;10.60;4.57;;;;;;;;;;5074579;28;20024;-66
2023/10/09 00:59:20;;;;;;;9.10;4.15;;;;;;;;;;5074230;28;20490;-66
2023/10/09 01:01:56;;;;;;;12.85;3.70;;;;;;;;;;5074044;28;20020;-66
2023/10/09 01:04:26;;;;;;;10.95;4.35;;;;;;;;;;5074461;28;20028;-66
2023/10/09 01:07:08;;;;;;;7.05;3.95;;;;;;;;;;5074053;28;20016;-66
2023/10/09 01:09:37;;;;;;;9.55;4.55;;;;;;;;;;5073817;28;20055;-66
2023/10/09 01:12:04;;;;;;;10.57;4.30;;;;;;;;;;5074283;28;20027;-66
2023/10/09 01:14:35;;;;;;;8.18;4.28;;;;;;;;;;5074036;28;20017;-65
2023/10/09 01:17:02;;;;;;;8.95;4.40;;;;;;;;;;5073692;28;20748;-66
2023/10/09 01:19:30;;;;;;;9.98;4.20;;;;;;;;;;5074082;28;20024;-66
2023/10/09 01:22:12;;;;;;;11.98;4.45;;;;;;;;;;5073580;28;20039;-66
2023/10/09 01:24:39;;;;;;;8.70;4.10;;;;;;;;;;5073990;28;20025;-66
2023/10/09 01:27:15;;;;;;;11.23;4.68;;;;;;;;;;5073518;28;20034;-66
2023/10/09 01:29:41;;;;;;;8.35;4.47;;;;;;;;;;5073658;28;20492;-66
2023/10/09 01:32:16;;;;;;;8.73;4.10;;;;;;;;;;5073390;28;20423;-66
2023/10/09 01:34:43;;;;;;;10.02;4.03;;;;;;;;;;5073409;28;20017;-66
2023/10/09 01:37:23;;;;;;;10.80;4.35;;;;;;;;;;5054809;28;20025;-66
2023/10/09 01:39:50;;;;;;;9.52;3.90;;;;;;;;;;5073124;28;20028;-66
2023/10/09 01:44:58;;;;;;;8.25;3.95;;;;;;;;;;5073266;28;20035;-66
2023/10/09 01:47:25;;;;;;;16.20;4.32;;;;;;;;;;5073418;28;20094;-66
2023/10/09 01:49:57;;;;;;;11.40;3.50;;;;;;;;;;5073560;28;20016;-66
2023/10/09 01:52:24;;;;;;;7.55;4.32;;;;;;;;;;5073123;28;20021;-66
2023/10/09 01:54:53;;;;;;;9.13;3.90;;;;;;;;;;5073195;28;20037;-66
2023/10/09 01:57:22;;;;;;;9.15;4.18;;;;;;;;;;5073407;28;20024;-66
2023/10/09 01:59:49;;;;;;;9.48;3.95;;;;;;;;;;5073227;28;20024;-66
2023/10/09 02:02:25;;;;;;;9.10;4.30;;;;;;;;;;5073195;28;20025;-66
2023/10/09 02:04:53;;;;;;;11.00;4.50;;;;;;;;;;5072990;28;20020;-66
2023/10/09 02:07:27;;;;;;;11.73;4.38;;;;;;;;;;5072534;28;20036;-66
2023/10/09 02:09:55;;;;;;;8.52;3.75;;;;;;;;;;5073134;28;20027;-67
2023/10/09 02:12:23;;;;;;;8.70;4.50;;;;;;;;;;5072857;28;20028;-66
2023/10/09 02:14:53;;;;;;;10.05;3.88;;;;;;;;;;5073283;28;20028;-66
2023/10/09 02:17:20;;;;;;;9.30;4.40;;;;;;;;;;5073022;28;20035;-66
2023/10/09 02:19:49;;;;;;;12.98;4.15;;;;;;;;;;5072847;28;20027;-66
2023/10/09 02:22:17;;;;;;;9.25;3.85;;;;;;;;;;5072749;28;20021;-66
2023/10/09 02:24:51;;;;;;;7.78;4.25;;;;;;;;;;5072960;28;20069;-66
2023/10/09 02:30:29;;;;;;;9.63;4.13;;;;;;;;;;5010713;28;20399;-66
2023/10/09 02:33:06;;;;;;;8.60;4.32;;;;;;;;;;5011094;28;20108;-66
2023/10/09 02:35:42;;;;;;;9.25;3.83;;;;;;;;;;5010610;28;20030;-66
2023/10/09 02:38:14;;;;;;;9.65;3.95;;;;;;;;;;5010724;28;20034;-66
2023/10/09 02:41:07;;;;;;;12.50;4.38;;;;;;;;;;5010881;28;20434;-66
2023/10/09 02:43:47;;;;;;;10.27;4.28;;;;;;;;;;5010397;28;20030;-66
2023/10/09 02:46:20;;;;;;;11.15;4.35;;;;;;;;;;5010615;28;20037;-66
2023/10/09 02:48:52;;;;;;;7.63;3.70;;;;;;;;;;5010539;28;20030;-66
2023/10/09 02:52:06;;;;;;;8.57;3.97;;;;;;;;;;5010506;28;20412;-66
2023/10/09 02:54:18;;;;;;;8.90;4.15;;;;;;;;;;5005312;28;20474;-66
2023/10/09 02:57:05;;;;;;;9.18;4.10;;;;;;;;;;5010424;28;20034;-66
2023/10/09 02:59:32;;;;;;;8.20;3.97;;;;;;;;;;5010499;28;20029;-66
2023/10/09 03:01:59;;;;;;;13.82;4.93;;;;;;;;;;5010557;28;20052;-66
2023/10/09 03:04:29;;;;;;;7.22;3.75;;;;;;;;;;5044771;28;20050;-66
2023/10/09 03:06:57;;;;;;;12.45;4.57;;;;;;;;;;5072312;28;20028;-66
2023/10/09 03:09:27;;;;;;;11.40;4.78;;;;;;;;;;5072318;28;20373;-66
2023/10/09 03:12:02;;;;;;;9.70;3.92;;;;;;;;;;5072183;28;20025;-66
2023/10/09 03:14:32;;;;;;;11.50;4.05;;;;;;;;;;5072120;28;20063;-66
2023/10/09 03:16:59;;;;;;;10.50;4.13;;;;;;;;;;5072139;28;20389;-66
2023/10/09 03:19:29;;;;;;;9.80;4.05;;;;;;;;;;5072023;28;20101;-66
2023/10/09 03:21:58;;;;;;;11.32;4.22;;;;;;;;;;5072139;28;20037;-66
2023/10/09 03:24:27;;;;;;;8.75;4.45;;;;;;;;;;5072644;28;20032;-66
2023/10/09 03:26:55;;;;;;;10.68;4.35;;;;;;;;;;5071841;28;20043;-66
2023/10/09 03:29:22;;;;;;;10.65;4.32;;;;;;;;;;5072144;28;20042;-66
2023/10/09 03:31:50;;;;;;;10.52;4.50;;;;;;;;;;5054189;28;20035;-66
2023/10/09 03:34:18;;;;;;;9.07;4.28;;;;;;;;;;5071512;28;20040;-66
2023/10/09 03:36:44;;;;;;;8.30;3.75;;;;;;;;;;5072143;28;20055;-66
2023/10/09 03:42:00;;;;;;;10.55;4.10;;;;;;;;;;5071923;28;20033;-66
2023/10/09 03:44:29;;;;;;;7.40;4.53;;;;;;;;;;5072060;28;20381;-66
2023/10/09 03:46:56;;;;;;;12.70;4.53;;;;;;;;;;5071660;28;20031;-66
2023/10/09 03:49:24;;;;;;;10.23;4.18;;;;;;;;;;5072043;28;20146;-66
2023/10/09 03:51:50;;;;;;;9.18;4.40;;;;;;;;;;5071803;28;20389;-66
2023/10/09 03:54:20;;;;;;;14.25;4.40;;;;;;;;;;5071723;28;20416;-66
2023/10/09 03:56:50;;;;;;;11.45;4.40;;;;;;;;;;5071702;28;20500;-66
2023/10/09 03:59:19;;;;;;;8.47;4.27;;;;;;;;;;5073253;28;20032;-66
2023/10/09 04:01:48;;;;;;;7.97;3.92;;;;;;;;;;5074971;28;20094;-66
2023/10/09 04:04:14;;;;;;;16.25;4.80;;;;;;;;;;5075294;28;20485;-66
2023/10/09 04:06:41;;;;;;;9.23;4.50;;;;;;;;;;5075611;28;20035;-66
2023/10/09 04:11:47;;;;;;;7.13;3.97;;;;;;;;;;5075221;28;20500;-68
2023/10/09 04:14:32;;;;;;;10.00;4.57;;;;;;;;;;5074862;28;20028;-68
2023/10/09 04:17:06;;;;;;;11.02;4.70;;;;;;;;;;5074866;28;20038;-69
2023/10/09 04:22:31;;;;;;;11.02;4.50;;;;;;;;;;5033035;28;20051;-68
2023/10/09 04:24:57;;;;;;;12.07;4.57;;;;;;;;;;5032957;28;20030;-68
2023/10/09 04:27:26;;;;;;;8.80;4.28;;;;;;;;;;5032739;28;20608;-68
2023/10/09 04:29:54;;;;;;;11.23;4.50;;;;;;;;;;5032923;28;20026;-68
2023/10/09 04:32:24;;;;;;;11.80;4.28;;;;;;;;;;5032697;28;20037;-68
2023/10/09 04:37:36;;;;;;;8.80;4.63;;;;;;;;;;5032576;28;20036;-68
2023/10/09 04:40:12;;;;;;;7.68;4.00;;;;;;;;;;5032563;28;20537;-68
2023/10/09 04:42:46;;;;;;;7.25;3.90;;;;;;;;;;5032676;28;20021;-68
2023/10/09 04:47:49;;;;;;;9.77;3.72;;;;;;;;;;5032978;28;20037;-68
2023/10/09 04:53:22;;;;;;;13.27;3.92;;;;;;;;;;5032411;28;20087;-68
2023/10/09 04:55:53;;;;;;;10.07;4.75;;;;;;;;;;5032230;28;20042;-68
2023/10/09 04:58:24;;;;;;;9.70;4.25;;;;;;;;;;5038707;28;20045;-68
2023/10/09 05:03:39;;;;;;;9.00;4.35;;;;;;;;;;5054169;28;20498;-68
2023/10/09 05:06:21;;;;;;;11.90;4.53;;;;;;;;;;5054455;28;20025;-68
2023/10/09 05:08:48;;;;;;;10.73;4.45;;;;;;;;;;5053843;28;20025;-68
2023/10/09 05:11:34;;;;;;;11.77;3.97;;;;;;;;;;5053520;28;20029;-68
2023/10/09 05:14:12;;;;;;;16.23;4.68;;;;;;;;;;5053794;28;20017;-68
2023/10/09 05:16:54;;;;;;;11.05;4.25;;;;;;;;;;5068530;28;20028;-68
2023/10/09 05:19:41;;;;;;;14.38;4.22;;;;;;;;;;5074069;28;20024;-68
2023/10/09 05:22:56;;;;;;;11.60;4.43;;;;;;;;;;5073675;28;20031;-69
2023/10/09 05:25:16;;;;;;;12.25;4.22;;;;;;;;;;5071619;28;20051;-68
2023/10/09 05:27:45;;;;;;;10.98;4.05;;;;;;;;;;5073557;28;20031;-68
2023/10/09 05:30:33;;;;;;;14.43;4.50;;;;;;;;;;5073275;28;20481;-69
2023/10/09 05:33:27;;;;;;;14.80;4.22;;;;;;;;;;5073638;28;20021;-68
2023/10/09 05:36:05;;;;;;;10.93;4.30;;;;;;;;;;5073695;28;20427;-68
2023/10/09 05:38:35;;;;;;;11.63;4.50;;;;;;;;;;5073522;28;20385;-68
2023/10/09 05:41:45;;;;;;;9.83;4.63;;;;;;;;;;5073460;28;20090;-68
2023/10/09 05:46:36;;;;;;;10.77;4.55;;;;;;;;;;5073439;28;20033;-66
2023/10/09 05:49:19;;;;;;;10.98;4.13;;;;;;;;;;5073416;28;20035;-68
2023/10/09 05:51:53;;;;;;;13.77;4.50;;;;;;;;;;5073241;28;20028;-68
2023/10/09 06:08:06;;;;;;;10.52;4.38;;;;;;;;;;5072816;28;20028;-68
2023/10/09 06:10:39;;;;;;;10.15;3.92;;;;;;;;;;5072828;28;20022;-69
2023/10/09 06:13:06;;;;;;;13.70;4.93;;;;;;;;;;5072861;28;20035;-68
2023/10/09 06:18:32;;;;;;;18.38;5.40;;;;;;;;;;5071937;28;20043;-68
2023/10/09 06:26:26;;;;;;;14.65;4.68;;;;;;;;;;5071409;28;20039;-69
2023/10/09 06:29:14;;;;;;;18.38;4.93;;;;;;;;;;5075250;28;20035;-68
2023/10/09 06:31:58;;;;;;;14.38;4.80;;;;;;;;;;5072282;28;20035;-68
2023/10/09 06:34:35;;;;;;;12.73;4.68;;;;;;;;;;5054450;28;20358;-69
2023/10/09 06:37:07;;;;;;;18.10;4.32;;;;;;;;;;5057375;28;20481;-68
2023/10/09 06:42:51;;;;;;;15.32;4.93;;;;;;;;;;5009440;28;20041;-68
2023/10/09 06:47:56;;;;;;;16.00;4.72;;;;;;;;;;5005315;28;20036;-69
2023/10/09 06:52:58;;;;;;;15.93;4.68;;;;;;;;;;4990046;28;19905;-69
2023/10/09 06:55:35;;;;;;;18.98;4.82;;;;;;;;;;5008208;28;20060;-69
2023/10/09 06:58:09;;;;;;;18.45;4.85;;;;;;;;;;5009055;28;20028;-69
2023/10/09 07:03:32;;;;;;;;;;;;;;;;;;5007630;28;20021;-68
2023/10/09 07:14:32;;;;;;;12.45;4.82;;;;;;;;;;5009069;28;20041;-68
2023/10/09 07:17:00;;;;;;;17.83;5.25;;;;;;;;;;5006248;28;20042;-68
2023/10/09 07:24:49;;;;;;;20.98;4.95;;;;;;;;;;5048309;28;20492;-69
2023/10/09 07:27:43;;;;;;;19.85;5.13;;;;;;;;;;5058304;28;20032;-68
2023/10/09 07:32:54;;;;;;;13.73;4.25;;;;;;;;;;5057419;28;20078;-68
2023/10/09 07:36:06;;;;;;;12.50;4.57;;;;;;;;;;5079833;28;20501;-68
2023/10/09 07:38:19;;;;;;;13.13;4.40;;;;;;;;;;5060815;28;20035;-68
2023/10/09 07:40:56;;;;;;;15.02;4.43;;;;;;;;;;5071694;28;20500;-68
2023/10/09 07:43:28;;;;;;;12.98;4.40;;;;;;;;;;5074163;28;20021;-68
2023/10/09 07:48:26;;;;;;;17.95;4.93;;;;;;;;;;5073909;28;20013;-69
2023/10/09 07:50:59;;;;;;;12.38;4.53;;;;;;;;;;5074281;28;20431;-69
2023/10/09 07:53:29;;;;;;;15.93;4.30;;;;;;;;;;5068904;28;20741;-69
2023/10/09 07:55:58;;;;;;;14.13;4.95;;;;;;;;;;5073983;28;20027;-69
2023/10/09 07:58:27;;;;;;;24.00;5.00;;;;;;;;;;5071898;28;20021;-67
2023/10/09 08:01:06;;;;;;;14.88;4.68;;;;;;;;;;5056352;28;20028;-67
2023/10/09 08:03:35;;;;;;;11.65;4.55;;;;;;;;;;5075980;28;20025;-67
2023/10/09 08:17:05;;;;;;;12.30;4.53;;;;;;;;;;5069925;28;20016;-67
2023/10/09 08:19:51;;;;;;;;;;;;;;;;;;5076436;28;20022;-67
2023/10/09 08:24:57;;;;;;;15.68;4.63;;;;;;;;;;5083827;28;20040;-65
2023/10/09 08:32:40;;;;;;;14.68;4.70;;;;;;;;;;5072337;28;20055;-67
2023/10/09 08:35:29;;;;;;;15.25;4.30;;;;;;;;;;5072592;28;20498;-68
2023/10/09 08:37:59;;;;;;;24.17;5.10;;;;;;;;;;5072099;28;20016;-67
2023/10/09 08:40:39;;;;;;;19.92;4.53;;;;;;;;;;5073253;28;20039;-66
2023/10/09 08:43:17;;;;;;;11.10;4.00;;;;;;;;;;5060104;28;20036;-67
2023/10/09 08:45:51;;;;;;;18.10;4.80;;;;;;;;;;5052591;28;20398;-67
2023/10/09 08:48:18;;;;;;;14.65;4.68;;;;;;;;;;5068570;28;20034;-67
2023/10/09 08:50:46;;;;;;;11.90;4.88;;;;;;;;;;5077345;28;20019;-67
2023/10/09 08:53:13;;;;;;;23.92;5.15;;;;;;;;;;5074855;28;20024;-66
2023/10/09 08:55:40;;;;;;;17.05;4.93;;;;;;;;;;5052953;28;20082;-66
2023/10/09 08:58:15;;;;;;;13.70;4.10;;;;;;;;;;5072749;28;20020;-65
2023/10/09 09:00:46;;;;;;;13.00;4.28;;;;;;;;;;5056114;28;20021;-65
2023/10/09 09:03:15;;;;;;;11.18;4.85;;;;;;;;;;5051889;28;20021;-66
2023/10/09 09:05:42;;;;;;;15.10;4.60;;;;;;;;;;5051997;28;20031;-66
2023/10/09 09:08:23;;;;;;;17.58;5.15;;;;;;;;;;5067125;28;20029;-66
2023/10/09 09:10:53;;;;;;;13.30;4.90;;;;;;;;;;5057469;28;20017;-67
2023/10/09 09:13:19;;;;;;;13.47;4.53;;;;;;;;;;5069601;28;20025;-67
2023/10/09 09:15:47;;;;;;;10.88;4.47;;;;;;;;;;5053582;28;20474;-67
2023/10/09 09:18:17;;;;;;;11.88;4.50;;;;;;;;;;5051929;28;20555;-67
2023/10/09 09:20:47;;;;;;;13.00;4.50;;;;;;;;;;5066274;28;20081;-67
2023/10/09 09:23:13;;;;;;;9.98;4.28;;;;;;;;;;5035219;28;20036;-67
2023/10/09 09:25:44;;;;;;;9.40;4.43;;;;;;;;;;5055952;28;20473;-71
2023/10/09 09:28:12;;;;;;;10.65;4.38;;;;;;;;;;5043383;28;20106;-71
2023/10/09 09:30:41;;;;;;;9.63;4.43;;;;;;;;;;5051630;28;20389;-71
2023/10/09 09:36:06;;;;;;;11.95;4.15;;;;;;;;;;5071154;28;20032;-70
2023/10/09 09:38:47;;;;;;;12.07;4.43;;;;;;;;;;5058912;28;20029;-70
2023/10/09 09:41:23;;;;;;;12.57;4.20;;;;;;;;;;5060544;28;20456;-71
2023/10/09 09:43:57;;;;;;;11.85;4.30;;;;;;;;;;5069963;28;20024;-70
2023/10/09 09:46:33;;;;;;;13.35;4.18;;;;;;;;;;5055439;28;20083;-70
2023/10/09 09:49:03;;;;;;;11.80;4.40;;;;;;;;;;5053534;28;20485;-70
2023/10/09 09:51:34;;;;;;;12.60;4.35;;;;;;;;;;5063072;28;20021;-70
2023/10/09 09:54:02;;;;;;;;;;;;;;;;;;5068112;28;20049;-70
2023/10/09 09:56:30;;;;;;;12.77;4.18;;;;;;;;;;5090237;28;19914;-70
2023/10/09 09:59:02;;;;;;;9.25;4.63;;;;;;;;;;5091626;28;20028;-70
2023/10/09 10:01:35;;;;;;;13.90;4.10;;;;;;;;;;5075781;28;20035;-70
2023/10/09 10:04:13;;;;;;;11.88;4.72;;;;;;;;;;5082076;28;20050;-71
2023/10/09 10:06:48;;;;;;;17.35;4.35;;;;;;;;;;5071624;28;20021;-71
2023/10/09 10:09:38;;;;;;;10.65;3.70;;;;;;;;;;5071476;28;20031;-71
2023/10/09 10:12:09;;;;;;;9.32;4.70;;;;;;;;;;5084962;28;20016;-70
2023/10/09 10:15:14;;;;;;;17.92;4.95;;;;;;;;;;5091341;28;20020;-71
2023/10/09 10:17:56;;;;;;;11.02;3.88;;;;;;;;;;5051307;28;20033;-71
2023/10/09 10:20:25;;;;;;;13.23;4.13;;;;;;;;;;5051255;28;20029;-71
2023/10/09 10:23:17;;;;;;;15.93;4.90;;;;;;;;;;5051015;28;20043;-71
2023/10/09 10:25:48;;;;;;;11.55;4.35;;;;;;;;;;5050550;28;20436;-72
2023/10/09 10:28:28;;;;;;;12.00;4.20;;;;;;;;;;5074179;28;20032;-71
2023/10/09 10:30:55;;;;;;;11.65;3.97;;;;;;;;;;5091624;28;20034;-71
2023/10/09 10:33:27;;;;;;;11.23;4.03;;;;;;;;;;5090892;28;20020;-71
2023/10/09 10:35:54;;;;;;;12.98;4.03;;;;;;;;;;5091394;28;20020;-71
2023/10/09 10:38:45;;;;;;;11.23;3.75;;;;;;;;;;5091479;28;20035;-71
2023/10/09 10:41:13;;;;;;;10.98;4.22;;;;;;;;;;5091494;28;20031;-71
2023/10/09 10:51:40;;;;;;;9.55;4.25;;;;;;;;;;5091280;28;20026;-69
2023/10/09 10:56:57;;;;;;;10.48;3.92;;;;;;;;;;5090089;28;20024;-68
2023/10/09 10:59:24;;;;;;;15.30;3.65;;;;;;;;;;5091443;28;20028;-69
2023/10/09 11:07:09;;;;;;;13.20;4.25;;;;;;;;;;5090986;28;20024;-70
2023/10/09 11:12:42;;;;;;;10.05;3.92;;;;;;;;;;5112462;28;20613;-70
2023/10/09 11:15:34;;;;;;;13.23;3.95;;;;;;;;;;5115181;28;20026;-71
2023/10/09 11:18:05;;;;;;;11.02;3.50;;;;;;;;;;5096705;28;20496;-71
2023/10/09 11:20:32;;;;;;;7.68;3.67;;;;;;;;;;5115622;28;20020;-70
2023/10/09 11:25:50;;;;;;;11.65;4.20;;;;;;;;;;5114468;28;20024;-71
2023/10/09 11:28:29;;;;;;;6.88;4.05;;;;;;;;;;5101603;28;20028;-71
2023/10/09 11:30:56;;;;;;;13.32;4.03;;;;;;;;;;5094214;28;20028;-70
2023/10/09 11:33:22;;;;;;;12.90;4.85;;;;;;;;;;5094097;28;20016;-70
2023/10/09 11:35:59;;;;;;;11.80;4.15;;;;;;;;;;5094610;28;20032;-70
2023/10/09 11:38:26;;;;;;;12.63;4.15;;;;;;;;;;5095318;28;20054;-69
2023/10/09 11:43:24;;;;;;;11.63;4.32;;;;;;;;;;5089430;28;20141;-71
2023/10/09 11:45:56;;;;;;;9.55;4.05;;;;;;;;;;5097505;28;20028;-71
2023/10/09 11:48:33;;;;;;;15.30;4.70;;;;;;;;;;5094455;28;20024;-69
2023/10/09 11:55:55;;;;;;;13.27;4.80;;;;;;;;;;5094367;28;20038;-69
2023/10/09 11:58:22;;;;;;;11.70;4.20;;;;;;;;;;5094621;28;20024;-68
2023/10/09 12:00:56;;;;;;;16.42;4.45;;;;;;;;;;5092441;28;20023;-69
2023/10/09 12:03:28;;;;;;;10.57;3.92;;;;;;;;;;5090582;28;20036;-69
2023/10/09 12:05:57;;;;;;;10.93;3.95;;;;;;;;;;5086478;28;20380;-71
2023/10/09 12:08:27;;;;;;;9.90;4.22;;;;;;;;;;5094358;28;20038;-71
2023/10/09 12:10:57;;;;;;;14.45;4.30;;;;;;;;;;5093809;28;20032;-70
2023/10/09 12:13:24;;;;;;;8.13;4.00;;;;;;;;;;5093843;28;20691;-71
2023/10/09 12:15:52;;;;;;;10.63;4.10;;;;;;;;;;5102056;28;20028;-70
2023/10/09 12:18:19;;;;;;;13.10;4.05;;;;;;;;;;5100399;28;20411;-71
2023/10/09 12:20:53;;;;;;;14.27;4.07;;;;;;;;;;5091001;28;20392;-71
2023/10/09 12:23:21;;;;;;;15.73;4.05;;;;;;;;;;5093379;28;20024;-69
2023/10/09 12:25:50;;;;;;;10.38;4.18;;;;;;;;;;5093575;28;20496;-71
2023/10/09 12:28:20;;;;;;;10.25;4.60;;;;;;;;;;5093818;28;20031;-71
2023/10/09 12:30:50;;;;;;;8.65;4.00;;;;;;;;;;5093207;28;20042;-70
2023/10/09 12:33:17;;;;;;;9.85;3.53;;;;;;;;;;5092550;28;20036;-70
2023/10/09 12:35:45;;;;;;;13.98;4.28;;;;;;;;;;5093512;28;20038;-71
2023/10/09 12:38:13;;;;;;;10.60;4.05;;;;;;;;;;5093849;28;20028;-71
2023/10/09 12:40:41;;;;;;;10.38;3.95;;;;;;;;;;5093264;28;20016;-71
2023/10/09 12:43:17;;;;;;;10.20;3.78;;;;;;;;;;5093785;28;20036;-72
2023/10/09 12:45:44;;;;;;;8.50;3.42;;;;;;;;;;5092374;28;20088;-71
2023/10/09 12:48:12;;;;;;;6.50;3.28;;;;;;;;;;5093480;28;20362;-72
2023/10/09 12:50:41;;;;;;;8.60;3.63;;;;;;;;;;5092991;28;20133;-71
2023/10/09 12:53:07;;;;;;;;;;;;;;;;;;5093985;28;20392;-71
2023/10/09 12:55:40;;;;;;;7.53;3.50;;;;;;;;;;5093351;28;19927;-71
2023/10/09 12:58:07;;;;;;;9.02;3.42;;;;;;;;;;5092768;28;20030;-72
2023/10/09 13:00:36;;;;;;;5.88;3.30;;;;;;;;;;5093332;28;20016;-71
2023/10/09 13:03:13;;;;;;;6.85;3.30;;;;;;;;;;5092688;28;20039;-70
2023/10/09 13:05:51;;;;;;;4.30;3.00;;;;;;;;;;5093356;28;20073;-70
2023/10/09 13:08:36;;;;;;;7.13;3.30;;;;;;;;;;5093104;28;20030;-70
2023/10/09 13:11:16;;;;;;;6.47;3.22;;;;;;;;;;5093165;28;20032;-71
2023/10/09 13:13:43;;;;;;;7.25;3.25;;;;;;;;;;5092275;28;20024;-71
2023/10/09 13:16:11;;;;;;;5.78;3.33;;;;;;;;;;5094766;28;20020;-71
2023/10/09 13:18:39;;;;;;;6.18;3.25;;;;;;;;;;5093123;28;20028;-71
2023/10/09 13:21:05;;;;;;;7.93;3.13;;;;;;;;;;5092478;28;20132;-72
2023/10/09 13:23:46;;;;;;;12.45;3.42;;;;;;;;;;5092540;28;20025;-71
2023/10/09 13:26:23;;;;;;;8.93;3.47;;;;;;;;;;5092472;28;20035;-71
2023/10/09 13:28:51;;;;;;;6.50;3.08;;;;;;;;;;5091774;28;20024;-71
2023/10/09 13:31:17;;;;;;;6.88;3.40;;;;;;;;;;5092153;28;20044;-71
2023/10/09 13:33:45;;;;;;;8.57;3.05;;;;;;;;;;5091687;28;20024;-72
2023/10/09 13:36:27;;;;;;;5.57;2.90;;;;;;;;;;5092525;28;20028;-71
2023/10/09 13:38:56;;;;;;;10.63;3.10;;;;;;;;;;5092312;28;20024;-71
2023/10/09 13:41:28;;;;;;;9.57;2.63;;;;;;;;;;5091876;28;20667;-71
2023/10/09 13:43:56;;;;;;;6.35;3.10;;;;;;;;;;5091810;28;20020;-71
2023/10/09 13:46:24;;;;;;;9.68;3.30;;;;;;;;;;5092105;28;20031;-71
2023/10/09 13:48:52;;;;;;;8.05;3.40;;;;;;;;;;5091931;28;20023;-71
2023/10/09 13:51:23;;;;;;;8.70;3.37;;;;;;;;;;5092586;28;20032;-71
2023/10/09 13:53:49;;;;;;;5.03;2.95;;;;;;;;;;5092088;28;20031;-71
2023/10/09 13:56:20;;;;;;;6.93;3.20;;;;;;;;;;5091507;28;20031;-71
2023/10/09 13:58:47;;;;;;;8.57;3.15;;;;;;;;;;5092134;28;20030;-71
2023/10/09 14:01:32;;;;;;;7.72;3.20;;;;;;;;;;5091571;28;20477;-72
2023/10/09 14:04:00;;;;;;;8.98;3.40;;;;;;;;;;5092480;28;20035;-72
2023/10/09 14:06:30;;;;;;;9.48;3.15;;;;;;;;;;5090571;28;20034;-71
2023/10/09 14:09:09;;;;;;;8.95;3.20;;;;;;;;;;5091203;28;20020;-69
2023/10/09 14:11:44;;;;;;;5.77;3.03;;;;;;;;;;5091364;28;20048;-70
2023/10/09 14:14:11;;;;;;;9.55;3.17;;;;;;;;;;5091871;28;20031;-70
2023/10/09 14:16:42;;;;;;;14.60;3.28;;;;;;;;;;5093188;28;20493;-71
2023/10/09 14:19:13;;;;;;;14.07;3.60;;;;;;;;;;5090765;28;20480;-72
2023/10/09 14:21:41;;;;;;;14.48;3.53;;;;;;;;;;5090835;28;20024;-70
2023/10/09 14:24:18;;;;;;;15.57;3.37;;;;;;;;;;5072749;28;20020;-72
2023/10/09 14:26:46;;;;;;;9.63;3.15;;;;;;;;;;5091192;28;20034;-72
2023/10/09 14:29:16;;;;;;;11.88;2.88;;;;;;;;;;5091294;28;20024;-71
2023/10/09 14:31:49;;;;;;;9.45;2.90;;;;;;;;;;5091042;28;20350;-71
2023/10/09 14:34:15;;;;;;;6.13;2.75;;;;;;;;;;5091526;28;20034;-72
2023/10/09 14:36:43;;;;;;;8.43;2.45;;;;;;;;;;5091443;28;20359;-72
2023/10/09 14:39:18;;;;;;;8.23;2.60;;;;;;;;;;5091325;28;20026;-71
2023/10/09 14:41:45;;;;;;;7.82;2.40;;;;;;;;;;5090744;28;20020;-71
2023/10/09 14:44:16;;;;;;;4.68;2.38;;;;;;;;;;5091587;28;20028;-71
2023/10/09 14:46:42;;;;;;;6.03;2.38;;;;;;;;;;5091308;28;20028;-72
2023/10/09 14:49:13;;;;;;;6.82;2.50;;;;;;;;;;5091092;28;20024;-72
2023/10/09 14:51:40;;;;;;;6.78;2.38;;;;;;;;;;5091037;28;20036;-71
2023/10/09 14:54:07;;;;;;;6.38;2.55;;;;;;;;;;5090849;28;20349;-72
2023/10/09 14:56:36;;;;;;;5.97;2.50;;;;;;;;;;5090846;28;20109;-72
2023/10/09 14:59:03;;;;;;;10.48;2.63;;;;;;;;;;5089423;28;20030;-72
2023/10/09 15:01:31;;;;;;;5.40;2.97;;;;;;;;;;5080826;28;20020;-71
2023/10/09 15:03:59;;;;;;;6.63;2.45;;;;;;;;;;5090777;28;20032;-71
2023/10/09 15:06:30;;;;;;;8.55;2.70;;;;;;;;;;5090335;28;20404;-72
2023/10/09 15:09:07;;;;;;;6.65;2.50;;;;;;;;;;5090225;28;20020;-71
2023/10/09 15:11:34;;;;;;;6.65;2.58;;;;;;;;;;5091350;28;20024;-72
2023/10/09 15:14:00;;;;;;;6.78;2.70;;;;;;;;;;5090655;28;20027;-72
2023/10/09 15:16:29;;;;;;;6.90;2.42;;;;;;;;;;5104939;28;20518;-71
2023/10/09 15:18:57;;;;;;;14.93;3.70;;;;;;;;;;5095902;28;20020;-71
2023/10/09 15:21:26;;;;;;;10.30;2.60;;;;;;;;;;5093339;28;20023;-71
2023/10/09 15:24:01;;;;;;;12.60;3.13;;;;;;;;;;5090963;28;20084;-71
2023/10/09 15:26:32;;;;;;;11.77;3.00;;;;;;;;;;5090950;28;20277;-71
2023/10/09 15:29:00;;;;;;;13.00;3.63;;;;;;;;;;5091763;28;20027;-71
2023/10/09 15:31:27;;;;;;;8.30;2.67;;;;;;;;;;5091811;28;20046;-71
2023/10/09 15:33:53;;;;;;;6.57;2.50;;;;;;;;;;5091948;28;20396;-71
2023/10/09 15:36:20;;;;;;;8.23;2.40;;;;;;;;;;5091693;28;20030;-71
2023/10/09 15:38:49;;;;;;;11.70;2.70;;;;;;;;;;5091482;28;20516;-71
2023/10/09 15:41:16;;;;;;;10.60;2.60;;;;;;;;;;5091613;28;20028;-70
2023/10/09 15:43:44;;;;;;;13.32;3.40;;;;;;;;;;5091758;28;20028;-70
2023/10/09 15:46:17;;;;;;;8.70;3.15;;;;;;;;;;5090552;28;20012;-71
2023/10/09 15:48:45;;;;;;;6.45;2.47;;;;;;;;;;5091542;28;20036;-71
2023/10/09 15:51:15;;;;;;;7.75;3.00;;;;;;;;;;5091657;28;20024;-71
2023/10/09 15:53:42;;;;;;;8.27;3.03;;;;;;;;;;5090442;28;20612;-71
2023/10/09 15:56:11;;;;;;;7.97;2.95;;;;;;;;;;5111645;28;20034;-71
2023/10/09 15:58:42;;;;;;;10.50;3.53;;;;;;;;;;5115213;28;20042;-70
2023/10/09 16:01:12;;;;;;;12.27;2.58;;;;;;;;;;5115265;28;20028;-71
2023/10/09 16:03:43;;;;;;;8.68;3.20;;;;;;;;;;5115611;28;20472;-70
2023/10/09 16:06:12;;;;;;;8.25;2.90;;;;;;;;;;5115712;28;20032;-71
2023/10/09 16:08:39;;;;;;;12.32;3.55;;;;;;;;;;5115573;28;20023;-70
2023/10/09 16:11:07;;;;;;;9.05;3.15;;;;;;;;;;5115282;28;20042;-70
2023/10/09 16:13:34;;;;;;;11.38;3.25;;;;;;;;;;5115327;28;20032;-71
2023/10/09 16:16:00;;;;;;;6.20;2.80;;;;;;;;;;5105773;28;20072;-70
2023/10/09 16:18:27;;;;;;;16.92;3.65;;;;;;;;;;5095111;28;20038;-70
2023/10/09 16:20:54;;;;;;;14.60;3.22;;;;;;;;;;5095065;28;20020;-70
2023/10/09 16:23:21;;;;;;;9.57;3.53;;;;;;;;;;5095408;28;20028;-70
2023/10/09 16:25:48;;;;;;;10.95;3.03;;;;;;;;;;5095183;28;20032;-70
2023/10/09 16:28:15;;;;;;;11.60;3.30;;;;;;;;;;5095127;28;20497;-70
2023/10/09 16:30:43;;;;;;;11.02;3.13;;;;;;;;;;5095159;28;20024;-70
2023/10/09 16:33:09;;;;;;;12.13;3.05;;;;;;;;;;5095399;28;20030;-70
2023/10/09 16:35:37;;;;;;;10.32;3.35;;;;;;;;;;5095092;28;20028;-70
2023/10/09 16:38:11;;;;;;;9.48;2.88;;;;;;;;;;5095274;28;20022;-70
2023/10/09 16:40:37;;;;;;;11.38;3.00;;;;;;;;;;5095068;28;20016;-70
2023/10/09 16:43:05;;;;;;;12.63;3.65;;;;;;;;;;5095123;28;20351;-70
2023/10/09 16:45:35;;;;;;;11.45;3.65;;;;;;;;;;5094891;28;20510;-70
2023/10/09 16:48:05;;;;;;;12.60;4.00;;;;;;;;;;5094929;28;20047;-70
2023/10/09 16:50:31;;;;;;;9.23;3.20;;;;;;;;;;5094503;28;20023;-70
2023/10/09 16:53:00;;;;;;;10.13;3.20;;;;;;;;;;5095015;28;20515;-70
2023/10/09 16:55:26;;;;;;;13.55;3.20;;;;;;;;;;5094585;28;20062;-70
2023/10/09 16:57:55;;;;;;;7.97;3.50;;;;;;;;;;5094985;28;20028;-70
2023/10/09 17:00:40;;;;;;;8.32;3.42;;;;;;;;;;5094786;28;20030;-70
2023/10/09 17:03:09;;;;;;;12.10;3.53;;;;;;;;;;5094567;28;20034;-70
2023/10/09 17:05:55;;;;;;;9.80;3.45;;;;;;;;;;5094152;28;20032;-70
2023/10/09 17:08:29;;;;;;;13.50;3.72;;;;;;;;;;5095108;28;20077;-70
2023/10/09 17:10:56;;;;;;;7.55;3.83;;;;;;;;;;5094359;28;20024;-70
2023/10/09 17:13:24;;;;;;;6.18;4.05;;;;;;;;;;5094898;28;20028;-70
2023/10/09 17:15:54;;;;;;;12.65;4.05;;;;;;;;;;5094116;28;20020;-70
2023/10/09 17:18:21;;;;;;;9.27;4.30;;;;;;;;;;5094258;28;20484;-70